createdAt,value
2019-04-05T20:48:41.453Z,8.79
2019-04-05T20:51:14.430Z,8.79
2019-04-05T20:53:48.778Z,8.96
2019-04-05T20:56:23.380Z,8.76
2019-04-05T20:58:57.787Z,8.55
2019-04-05T21:01:30.577Z,8.40
2019-04-05T21:04:03.480Z,8.27
2019-04-05T21:06:39.829Z,8.23
2019-04-05T21:09:11.743Z,8.16
2019-04-05T21:11:44.575Z,8.04
2019-04-05T21:14:18.509Z,7.89
2019-04-05T21:16:51.015Z,7.77
2019-04-05T21:19:23.603Z,7.72
2019-04-05T21:21:56.057Z,7.60
2019-04-05T21:24:36.129Z,7.47
2019-04-05T21:27:02.874Z,7.31
2019-04-05T21:29:35.432Z,7.22
2019-04-05T21:32:08.054Z,7.06
2019-04-05T21:34:40.710Z,6.91
2019-04-05T21:37:13.320Z,6.83
2019-04-05T21:39:46.274Z,6.76
2019-04-05T21:42:18.957Z,6.37
2019-04-05T21:44:52.436Z,6.37
2019-04-05T21:47:24.803Z,6.50
2019-04-05T21:49:57.494Z,6.43
2019-04-05T21:52:29.883Z,6.33
2019-04-05T21:55:02.369Z,6.28
2019-04-05T21:57:34.871Z,6.33
2019-04-05T22:00:30.329Z,6.19
2019-04-05T22:03:03.980Z,6.18
2019-04-05T22:05:36.633Z,6.08
2019-04-05T22:08:09.428Z,6.03
2019-04-05T22:10:42.366Z,5.97
2019-04-05T22:13:14.996Z,5.79
2019-04-05T22:15:49.290Z,5.79
2019-04-05T22:18:21.913Z,5.60
2019-04-05T22:20:54.459Z,5.60
2019-04-05T22:23:27.018Z,5.61
2019-04-05T22:25:58.553Z,5.51
2019-04-05T22:28:30.786Z,5.43
2019-04-05T22:31:03.394Z,5.30
2019-04-05T22:33:35.757Z,4.95
2019-04-05T22:36:08.344Z,4.95
2019-04-05T22:38:40.865Z,5.02
2019-04-05T22:41:12.550Z,5.02
2019-04-05T22:43:45.302Z,5.03
2019-04-05T22:46:19.310Z,4.97
2019-04-05T22:48:51.802Z,4.92
2019-04-05T22:51:24.358Z,4.92
2019-04-05T22:53:56.795Z,4.75
2019-04-05T22:56:29.549Z,4.75
2019-04-05T22:59:01.943Z,4.72
2019-04-05T23:01:34.625Z,4.64
2019-04-05T23:04:07.553Z,4.56
2019-04-05T23:06:40.311Z,4.49
2019-04-05T23:09:13.729Z,4.47
2019-04-05T23:11:46.351Z,4.48
2019-04-05T23:14:19.360Z,4.39
2019-04-05T23:16:51.911Z,4.28
2019-04-05T23:19:24.384Z,4.28
2019-04-05T23:21:56.351Z,4.22
2019-04-05T23:24:28.351Z,4.26
2019-04-05T23:27:00.757Z,4.18
2019-04-05T23:29:33.407Z,4.18
2019-04-05T23:32:05.792Z,4.28
2019-04-05T23:34:38.505Z,4.16
2019-04-05T23:37:11.053Z,4.11
2019-04-05T23:39:43.478Z,4.08
2019-04-05T23:42:15.891Z,4.07
2019-04-05T23:44:52.830Z,3.75
2019-04-05T23:47:25.451Z,3.75
2019-04-05T23:49:57.891Z,3.81
2019-04-05T23:52:30.599Z,3.82
2019-04-05T23:55:04.584Z,3.79
2019-04-05T23:57:37.032Z,3.73
